createdAt,value
2022-08-02T00:02:22.983Z,102250.97
2022-08-02T00:04:49.524Z,102253.81
2022-08-02T00:07:16.065Z,102258.94
2022-08-02T00:09:42.817Z,102242.97
2022-08-02T00:12:09.788Z,102243.97
2022-08-02T00:14:36.823Z,102244.81
2022-08-02T00:17:05.192Z,102245.69
2022-08-02T00:19:31.622Z,102244.06
2022-08-02T00:21:58.071Z,102236.31
2022-08-02T00:24:30.969Z,102235.34
2022-08-02T00:26:59.095Z,102227.44
2022-08-02T00:29:25.550Z,102218.72
2022-08-02T00:31:51.947Z,102216.22
2022-08-02T00:34:29.101Z,102220.59
2022-08-02T00:36:57.963Z,102209.97
2022-08-02T00:39:33.558Z,102220.53
2022-08-02T00:42:02.281Z,102215.31
2022-08-02T00:44:28.769Z,102209.28
2022-08-02T00:46:55.307Z,102210.09
2022-08-02T00:49:21.854Z,102203.22
2022-08-02T00:51:48.347Z,102197.06
2022-08-02T00:54:14.802Z,102201.56
2022-08-02T00:56:50.116Z,102198.16
2022-08-02T00:59:18.475Z,102194.63
2022-08-02T01:01:57.128Z,102183.19
2022-08-02T01:04:31.507Z,102171.69
2022-08-02T01:07:00.441Z,102170.78
2022-08-02T01:09:27.394Z,102167.28
2022-08-02T01:11:53.793Z,102168.22
2022-08-02T01:14:21.654Z,102167.41
2022-08-02T01:17:02.794Z,102164.81
2022-08-02T01:19:35.182Z,102160.31
2022-08-02T01:22:39.645Z,102164.75
2022-08-02T01:25:18.246Z,102151.78
2022-08-02T01:28:09.321Z,102154.25
2022-08-02T01:30:37.742Z,102149.19
2022-08-02T01:33:07.292Z,102152.72
2022-08-02T01:35:47.165Z,102155.19
2022-08-02T01:38:27.900Z,102153.63
2022-08-02T01:40:56.532Z,102154.50
2022-08-02T01:43:28.301Z,102154.50
2022-08-02T01:45:56.442Z,102157.03
2022-08-02T01:48:25.637Z,102150.84
2022-08-02T01:50:53.793Z,102164.88
2022-08-02T01:53:21.835Z,102164.00
2022-08-02T01:55:57.682Z,102153.44
2022-08-02T01:58:30.602Z,102156.94
2022-08-02T02:00:59.464Z,102159.47
2022-08-02T02:03:27.768Z,102162.31
2022-08-02T02:05:57.735Z,102156.94
2022-08-02T02:08:29.165Z,102151.78
2022-08-02T02:10:57.299Z,102156.13
2022-08-02T02:13:33.177Z,102137.81
2022-08-02T02:16:04.743Z,102141.31
2022-08-02T02:18:34.283Z,102137.78
2022-08-02T02:21:00.774Z,102136.72
2022-08-02T02:23:28.015Z,102136.72
2022-08-02T02:26:03.928Z,102138.56
2022-08-02T02:28:32.607Z,102139.31
2022-08-02T02:31:05.127Z,102143.81
2022-08-02T02:33:35.272Z,102143.97
2022-08-02T02:36:03.459Z,102140.34
2022-08-02T02:38:32.889Z,102140.50
2022-08-02T02:41:02.908Z,102140.34
2022-08-02T02:43:32.334Z,102137.97
2022-08-02T02:45:59.738Z,102133.53
2022-08-02T02:48:29.028Z,102131.00
2022-08-02T02:50:56.140Z,102133.91
2022-08-02T02:53:23.282Z,102124.19
2022-08-02T02:56:01.980Z,102137.22
2022-08-02T02:58:31.128Z,102132.84
2022-08-02T03:00:57.702Z,102134.47
2022-08-02T03:03:25.748Z,102134.38
2022-08-02T03:05:52.268Z,102121.06
2022-08-02T03:08:18.959Z,102117.44
2022-08-02T03:10:45.873Z,102117.38
2022-08-02T03:13:12.917Z,102119.88
2022-08-02T03:15:40.110Z,102113.16
2022-08-02T03:18:06.610Z,102114.06
2022-08-02T03:20:33.189Z,102113.97
2022-08-02T03:22:59.608Z,102113.84
2022-08-02T03:25:26.210Z,102104.38
2022-08-02T03:27:52.586Z,102104.41
2022-08-02T03:30:18.994Z,102104.50
2022-08-02T03:32:48.313Z,102105.44
2022-08-02T03:35:22.866Z,102100.22
2022-08-02T03:37:52.376Z,102101.88
2022-08-02T03:40:19.146Z,102105.44
2022-08-02T03:42:46.394Z,102111.50
2022-08-02T03:45:13.528Z,102103.41
2022-08-02T03:47:40.485Z,102087.78
2022-08-02T03:50:08.590Z,102079.13
2022-08-02T03:52:36.668Z,102084.13
2022-08-02T03:55:03.477Z,102083.19
2022-08-02T03:57:29.989Z,102081.50
2022-08-02T03:59:56.648Z,102083.25
2022-08-02T04:02:23.071Z,102087.53
2022-08-02T04:04:49.472Z,102087.66
2022-08-02T04:07:15.933Z,102077.25
2022-08-02T04:10:02.478Z,102071.16
2022-08-02T04:12:28.888Z,102078.88
2022-08-02T04:14:55.375Z,102068.19
2022-08-02T04:17:23.160Z,102078.50
2022-08-02T04:20:02.048Z,102069.75
2022-08-02T04:22:42.126Z,102069.75
2022-08-02T04:25:15.571Z,102063.31
2022-08-02T04:27:50.087Z,102065.72
2022-08-02T04:30:32.147Z,102053.91
2022-08-02T04:32:59.596Z,102044.63
2022-08-02T04:35:26.738Z,102042.50
2022-08-02T04:38:05.806Z,102050.31
2022-08-02T04:40:37.356Z,102069.31
2022-08-02T04:43:03.833Z,102077.63
2022-08-02T04:45:31.396Z,102075.72
2022-08-02T04:48:06.108Z,102081.56
2022-08-02T04:50:33.510Z,102080.28
2022-08-02T04:53:00.017Z,102088.97
2022-08-02T04:55:26.537Z,102105.75
2022-08-02T04:57:53.321Z,102094.94
2022-08-02T05:00:19.972Z,102092.63
2022-08-02T05:02:46.708Z,102103.91
2022-08-02T05:05:13.133Z,102103.13
2022-08-02T05:07:39.569Z,102108.44
2022-08-02T05:10:06.452Z,102095.97
2022-08-02T05:12:32.933Z,102098.53
2022-08-02T05:14:59.344Z,102091.72
2022-08-02T05:17:25.808Z,102094.53
2022-08-02T05:19:52.228Z,102097.63
2022-08-02T05:22:18.669Z,102102.75
2022-08-02T05:24:45.088Z,102114.69
2022-08-02T05:27:16.532Z,102123.06
2022-08-02T05:29:51.222Z,102139.00
2022-08-02T05:32:20.389Z,102135.19
2022-08-02T05:34:50.321Z,102142.22
2022-08-02T05:37:16.806Z,102163.84
2022-08-02T05:39:55.789Z,102148.44
2022-08-02T05:42:23.256Z,102191.31
2022-08-02T05:44:49.755Z,102040.38
2022-08-02T05:47:16.402Z,101733.75
2022-08-02T05:49:42.851Z,101592.50
2022-08-02T05:52:16.122Z,101578.91
2022-08-02T05:55:05.073Z,101593.38
2022-08-02T05:58:11.792Z,101600.94
2022-08-02T06:00:41.272Z,101624.59
2022-08-02T06:03:31.562Z,101634.00
2022-08-02T06:06:14.253Z,101628.75
2022-08-02T06:08:50.270Z,101636.44
2022-08-02T06:11:21.453Z,101634.00
2022-08-02T06:13:47.948Z,101629.00
2022-08-02T06:16:14.978Z,101628.19
2022-08-02T06:18:42.571Z,101629.16
2022-08-02T06:22:31.641Z,101614.09
2022-08-02T06:23:59.120Z,101598.72
2022-08-02T06:26:27.665Z,101587.41
2022-08-02T06:28:56.024Z,101591.94
2022-08-02T06:31:22.953Z,101588.47
2022-08-02T06:33:49.497Z,101605.66
2022-08-02T06:36:34.496Z,101612.97
2022-08-02T06:39:24.712Z,101633.22
2022-08-02T06:41:54.990Z,101740.53
2022-08-02T06:44:49.704Z,101843.97
2022-08-02T06:47:12.426Z,102028.38
2022-08-02T06:49:52.953Z,102075.69
2022-08-02T06:52:30.684Z,101894.72
2022-08-02T06:55:02.132Z,101826.16
2022-08-02T06:57:29.389Z,101789.28
2022-08-02T06:59:56.309Z,101799.53
2022-08-02T07:02:22.943Z,101927.75
2022-08-02T07:04:49.556Z,102023.53
2022-08-02T07:07:16.072Z,102165.50
2022-08-02T07:10:00.491Z,102330.50
2022-08-02T07:12:29.487Z,102346.81
2022-08-02T07:14:56.759Z,102393.47
2022-08-02T07:17:23.143Z,102255.72
2022-08-02T07:19:49.567Z,102210.03
2022-08-02T07:22:16.461Z,102139.50
2022-08-02T07:24:43.157Z,102182.66
2022-08-02T07:27:11.654Z,102227.63
2022-08-02T07:29:46.101Z,102287.16
2022-08-02T07:32:18.062Z,102452.31
2022-08-02T07:34:50.615Z,102505.66
2022-08-02T07:37:35.358Z,102530.44
2022-08-02T07:40:12.650Z,102524.66
2022-08-02T07:42:40.340Z,102650.69
2022-08-02T07:45:07.148Z,102725.91
2022-08-02T07:47:39.601Z,102497.06
2022-08-02T07:50:07.655Z,102436.63
2022-08-02T07:52:34.811Z,102389.88
2022-08-02T07:55:01.505Z,102347.28
2022-08-02T07:57:28.122Z,102345.28
2022-08-02T07:59:54.520Z,102414.16
2022-08-02T08:02:20.970Z,102440.06
2022-08-02T08:04:47.365Z,102396.09
2022-08-02T08:07:13.806Z,102355.91
2022-08-02T08:09:40.572Z,102476.22
2022-08-02T08:12:08.866Z,102497.59
2022-08-02T08:14:36.315Z,102654.97
2022-08-02T08:17:03.367Z,102772.41
2022-08-02T08:19:50.121Z,102788.94
2022-08-02T08:22:16.308Z,102829.34
2022-08-02T08:24:42.722Z,102589.72
2022-08-02T08:27:09.273Z,102674.69
2022-08-02T08:29:35.678Z,102720.72
2022-08-02T08:32:02.121Z,102452.75
2022-08-02T08:34:28.562Z,102423.03
2022-08-02T08:36:54.967Z,102328.75
2022-08-02T08:39:21.483Z,102390.97
2022-08-02T08:41:47.974Z,102398.16
2022-08-02T08:44:14.476Z,102344.16
2022-08-02T08:46:43.534Z,102394.59
2022-08-02T08:49:16.630Z,102480.25
2022-08-02T08:51:44.209Z,102595.94
2022-08-02T08:54:15.195Z,102470.72
2022-08-02T08:56:43.086Z,102440.63
2022-08-02T08:59:10.735Z,102552.00
2022-08-02T09:01:49.820Z,102349.63
2022-08-02T09:04:21.016Z,102344.16
2022-08-02T09:06:51.857Z,102132.66
2022-08-02T09:09:19.629Z,102059.53
2022-08-02T09:11:46.179Z,101944.59
2022-08-02T09:14:26.576Z,102031.31
2022-08-02T09:16:53.017Z,102231.78
2022-08-02T09:19:24.706Z,102338.69
2022-08-02T09:22:12.486Z,102393.81
2022-08-02T09:24:42.168Z,102414.50
2022-08-02T09:27:17.311Z,102404.81
2022-08-02T09:30:13.613Z,102540.91
2022-08-02T09:32:46.264Z,102376.50
2022-08-02T09:35:12.744Z,102304.84
2022-08-02T09:37:39.149Z,102372.34
2022-08-02T09:40:06.088Z,102475.53
2022-08-02T09:42:32.681Z,102383.31
2022-08-02T09:45:01.346Z,102240.34
2022-08-02T09:47:31.092Z,102160.84
2022-08-02T09:49:58.561Z,102127.44
2022-08-02T09:52:36.857Z,102047.72
2022-08-02T09:55:11.799Z,102034.00
2022-08-02T09:57:38.402Z,101892.84
2022-08-02T10:00:14.903Z,102089.69
2022-08-02T10:03:21.537Z,102194.53
2022-08-02T10:05:55.670Z,102301.38
2022-08-02T10:08:22.482Z,102447.84
2022-08-02T10:10:48.905Z,102526.59
2022-08-02T10:13:19.984Z,102313.50
2022-08-02T10:15:50.449Z,102234.53
2022-08-02T10:18:37.006Z,102039.94
2022-08-02T10:21:07.673Z,101995.38
2022-08-02T10:23:36.353Z,102066.16
2022-08-02T10:26:03.238Z,101894.50
2022-08-02T10:28:29.796Z,101825.31
2022-08-02T10:30:57.552Z,101771.91
2022-08-02T10:33:25.913Z,101877.19
2022-08-02T10:36:04.560Z,101965.63
2022-08-02T10:38:35.202Z,101954.06
2022-08-02T10:41:01.703Z,101886.69
2022-08-02T10:43:37.032Z,101978.06
2022-08-02T10:46:30.788Z,101916.88
2022-08-02T10:52:03.481Z,101747.03
2022-08-02T10:54:42.822Z,101743.16
2022-08-02T10:57:31.253Z,101770.50
2022-08-02T11:00:00.648Z,101721.44
2022-08-02T11:02:47.697Z,101684.88
2022-08-02T11:05:43.398Z,101723.88
2022-08-02T11:08:21.539Z,101751.53
2022-08-02T11:10:48.089Z,101707.88
2022-08-02T11:13:18.666Z,101669.47
2022-08-02T11:15:50.981Z,101679.00
2022-08-02T11:18:18.149Z,101744.00
2022-08-02T11:20:44.691Z,101767.63
2022-08-02T11:23:44.188Z,101833.09
2022-08-02T11:26:30.516Z,101764.63
2022-08-02T11:28:58.501Z,101826.81
2022-08-02T11:31:25.829Z,101882.00
2022-08-02T11:33:53.497Z,101760.78
2022-08-02T11:36:20.341Z,101735.03
2022-08-02T11:38:49.614Z,101661.50
2022-08-02T11:41:46.806Z,101665.38
2022-08-02T11:44:07.251Z,101683.63
2022-08-02T11:46:33.957Z,101662.88
2022-08-02T11:49:18.416Z,101626.59
2022-08-02T11:51:56.088Z,101681.31
2022-08-02T11:54:35.245Z,101613.31
2022-08-02T11:57:18.946Z,101663.97
2022-08-02T11:59:48.992Z,101633.63
2022-08-02T12:02:16.465Z,101663.59
2022-08-02T12:04:44.156Z,101659.25
2022-08-02T12:07:10.629Z,101672.16
2022-08-02T12:09:41.117Z,101675.44
2022-08-02T12:12:08.086Z,101626.75
2022-08-02T12:14:42.173Z,101602.91
2022-08-02T12:17:08.928Z,101583.19
2022-08-02T12:19:37.523Z,101603.34
2022-08-02T12:22:27.247Z,101615.81
2022-08-02T12:25:14.952Z,101646.69
2022-08-02T12:28:23.749Z,101651.03
2022-08-02T12:31:00.275Z,101660.59
2022-08-02T12:33:51.315Z,101679.44
2022-08-02T12:36:25.187Z,101703.66
2022-08-02T12:39:04.856Z,101713.50
2022-08-02T12:41:32.762Z,101726.38
2022-08-02T12:44:00.612Z,101725.06
2022-08-02T12:46:27.141Z,101752.50
2022-08-02T12:49:16.910Z,101773.38
2022-08-02T12:51:55.659Z,101796.66
2022-08-02T12:54:38.755Z,101784.91
2022-08-02T12:57:12.966Z,101776.63
2022-08-02T12:59:40.985Z,101760.03
2022-08-02T13:02:10.282Z,101781.38
2022-08-02T13:04:37.799Z,101791.66
2022-08-02T13:07:05.161Z,101806.53
2022-08-02T13:09:42.640Z,101791.91
2022-08-02T13:12:10.575Z,101824.84
2022-08-02T13:14:41.712Z,101810.94
2022-08-02T13:17:12.172Z,101817.59
2022-08-02T13:19:39.079Z,101810.75
2022-08-02T13:22:05.879Z,101794.00
2022-08-02T13:24:41.185Z,101837.59
2022-08-02T13:27:20.772Z,101832.47
2022-08-02T13:29:47.937Z,101851.81
2022-08-02T13:32:14.785Z,101784.22
2022-08-02T13:34:41.608Z,101803.59
2022-08-02T13:37:08.084Z,101782.81
2022-08-02T13:39:34.704Z,101797.75
2022-08-02T13:42:01.223Z,101833.94
2022-08-02T13:44:27.746Z,101872.31
2022-08-02T13:46:54.210Z,101849.59
2022-08-02T13:49:21.670Z,101873.91
2022-08-02T13:51:48.714Z,101876.22
2022-08-02T13:54:16.483Z,101896.28
2022-08-02T13:56:43.188Z,101901.19
2022-08-02T13:59:54.867Z,101911.09
2022-08-02T14:01:56.760Z,101904.25
2022-08-02T14:04:23.990Z,101890.41
2022-08-02T14:06:50.525Z,101893.88
2022-08-02T14:09:17.478Z,101956.69
2022-08-02T14:11:45.241Z,101975.94
2022-08-02T14:14:16.712Z,101995.75
2022-08-02T14:16:45.371Z,102060.28
2022-08-02T14:19:15.471Z,102151.63
2022-08-02T14:21:48.073Z,102171.44
2022-08-02T14:24:16.131Z,102040.47
2022-08-02T14:26:43.389Z,101938.13
2022-08-02T14:29:10.374Z,101978.63
2022-08-02T14:31:41.637Z,101978.84
2022-08-02T14:34:11.039Z,102079.88
2022-08-02T14:36:38.231Z,102039.66
2022-08-02T14:39:04.945Z,102035.75
2022-08-02T14:41:31.381Z,102055.09
2022-08-02T14:43:57.793Z,102040.66
2022-08-02T14:46:24.297Z,101982.19
2022-08-02T14:48:50.735Z,101968.06
2022-08-02T14:51:17.247Z,101948.16
2022-08-02T14:53:49.110Z,102012.25
2022-08-02T14:56:16.333Z,102042.31
2022-08-02T14:58:42.726Z,102040.06
2022-08-02T15:01:09.365Z,101982.09
2022-08-02T15:03:43.242Z,101932.41
2022-08-02T15:06:10.349Z,101950.25
2022-08-02T15:08:36.835Z,101962.78
2022-08-02T15:11:03.518Z,101929.47
2022-08-02T15:13:30.010Z,101949.66
2022-08-02T15:15:56.730Z,101936.03
2022-08-02T15:18:23.187Z,101870.13
2022-08-02T15:20:57.340Z,101919.72
2022-08-02T15:23:25.203Z,101840.50
2022-08-02T15:26:06.167Z,101879.03
2022-08-02T15:28:33.591Z,101870.00
2022-08-02T15:31:00.001Z,101894.28
2022-08-02T15:33:26.735Z,101900.50
2022-08-02T15:35:53.111Z,101934.59
2022-08-02T15:38:19.507Z,101938.16
2022-08-02T15:40:45.924Z,101853.69
2022-08-02T15:43:12.442Z,101844.28
2022-08-02T15:45:40.277Z,101857.78
2022-08-02T15:48:06.878Z,101860.94
2022-08-02T15:50:33.286Z,101913.25
2022-08-02T15:52:59.706Z,101903.19
2022-08-02T15:55:26.146Z,101874.94
2022-08-02T15:57:52.576Z,101899.28
2022-08-02T16:00:19.277Z,101870.22
2022-08-02T16:02:47.037Z,101850.94
2022-08-02T16:05:15.153Z,101820.84
2022-08-02T16:07:41.546Z,101800.00
2022-08-02T16:10:08.321Z,101797.41
2022-08-02T16:12:34.960Z,101844.97
2022-08-02T16:15:01.387Z,101859.28
2022-08-02T16:17:51.273Z,101897.19
2022-08-02T16:20:14.429Z,101873.22
2022-08-02T16:22:41.138Z,101916.53
2022-08-02T16:25:08.061Z,101894.53
2022-08-02T16:27:34.477Z,101905.16
2022-08-02T16:30:20.901Z,101912.25
2022-08-02T16:32:47.493Z,101867.50
2022-08-02T16:35:13.937Z,101876.44
2022-08-02T16:37:52.160Z,101822.13
2022-08-02T16:40:19.351Z,101825.53
2022-08-02T16:42:50.254Z,101758.13
2022-08-02T16:45:19.938Z,101693.88
2022-08-02T16:47:55.858Z,101650.88
2022-08-02T16:50:27.237Z,101665.56
2022-08-02T16:52:56.158Z,101768.19
2022-08-02T16:55:22.565Z,101815.03
2022-08-02T16:57:50.200Z,101847.19
2022-08-02T17:00:17.001Z,101834.38
2022-08-02T17:02:44.141Z,101778.25
2022-08-02T17:05:14.702Z,101723.38
2022-08-02T17:08:08.204Z,101687.41
2022-08-02T17:10:28.617Z,101725.09
2022-08-02T17:12:58.512Z,101768.19
2022-08-02T17:16:17.180Z,101764.25
2022-08-02T17:18:26.452Z,101748.34
2022-08-02T17:20:54.149Z,101677.16
2022-08-02T17:23:20.678Z,101590.47
2022-08-02T17:25:52.288Z,101535.31
2022-08-02T17:28:19.407Z,101498.47
2022-08-02T17:30:45.821Z,101492.47
2022-08-02T17:33:12.516Z,101497.50
2022-08-02T17:35:43.310Z,101522.28
2022-08-02T17:38:26.152Z,101573.06
2022-08-02T17:40:54.848Z,101609.84
2022-08-02T17:43:21.607Z,101631.09
2022-08-02T17:45:59.750Z,101673.13
2022-08-02T17:48:36.725Z,101676.78
2022-08-02T17:51:03.852Z,101694.16
2022-08-02T17:53:36.447Z,101695.38
2022-08-02T17:56:02.993Z,101742.69
2022-08-02T17:58:33.122Z,101753.31
2022-08-02T18:01:00.177Z,101702.97
2022-08-02T18:03:27.879Z,101662.13
2022-08-02T18:05:55.482Z,101670.94
2022-08-02T18:08:23.644Z,101647.44
2022-08-02T18:10:51.857Z,101626.56
2022-08-02T18:13:18.281Z,101619.34
2022-08-02T18:15:45.462Z,101630.31
2022-08-02T18:18:13.097Z,101612.25
2022-08-02T18:20:40.929Z,101605.41
2022-08-02T18:23:10.913Z,101601.25
2022-08-02T18:25:45.730Z,101588.78
2022-08-02T18:28:14.279Z,101575.22
2022-08-02T18:30:40.856Z,101570.69
2022-08-02T18:33:55.359Z,101575.47
2022-08-02T18:35:55.269Z,101548.19
2022-08-02T18:38:22.915Z,101552.81
2022-08-02T18:40:51.181Z,101539.88
2022-08-02T18:43:18.249Z,101532.50
2022-08-02T18:46:05.323Z,101542.16
2022-08-02T18:48:31.186Z,101548.41
2022-08-02T18:50:57.868Z,101546.16
2022-08-02T18:53:39.016Z,101536.41
2022-08-02T18:56:08.612Z,101545.09
2022-08-02T18:58:35.126Z,101540.53
2022-08-02T19:01:05.140Z,101536.41
2022-08-02T19:03:41.446Z,101514.63
2022-08-02T19:06:16.306Z,101504.63
2022-08-02T19:08:46.373Z,101496.41
2022-08-02T19:11:35.114Z,101494.84
2022-08-02T19:14:02.175Z,101506.63
2022-08-02T19:16:37.002Z,101515.41
2022-08-02T19:19:07.386Z,101493.78
2022-08-02T19:22:15.840Z,101470.22
2022-08-02T19:24:20.263Z,101459.31
2022-08-02T19:26:51.106Z,101470.78
2022-08-02T19:29:19.587Z,101472.44
2022-08-02T19:32:06.338Z,101466.69
2022-08-02T19:34:52.866Z,101462.66
2022-08-02T19:37:19.282Z,101466.75
2022-08-02T19:39:46.015Z,101467.84
2022-08-02T19:42:12.557Z,101473.41
2022-08-02T19:44:43.201Z,101478.66
2022-08-02T19:47:11.925Z,101475.22
2022-08-02T19:49:40.305Z,101469.34
2022-08-02T19:52:20.476Z,101474.69
2022-08-02T19:54:55.545Z,101448.59
2022-08-02T19:57:25.017Z,101451.41
2022-08-02T19:59:52.222Z,101412.41
2022-08-02T20:02:19.209Z,101386.75
2022-08-02T20:04:49.949Z,101334.59
2022-08-02T20:07:48.222Z,101321.50
2022-08-02T20:10:11.003Z,101239.97
2022-08-02T20:12:39.164Z,101220.75
2022-08-02T20:15:14.380Z,101150.84
2022-08-02T20:17:43.652Z,101129.69
2022-08-02T20:20:14.671Z,101098.78
2022-08-02T20:22:41.109Z,101038.78
2022-08-02T20:25:10.140Z,101035.59
2022-08-02T20:27:51.016Z,101008.78
2022-08-02T20:30:18.085Z,101027.94
2022-08-02T20:35:30.901Z,101028.34
2022-08-02T20:38:02.185Z,101038.19
2022-08-02T20:40:29.342Z,101030.28
2022-08-02T20:42:55.990Z,101029.19
2022-08-02T20:45:23.604Z,101027.72
2022-08-02T20:47:54.992Z,101038.44
2022-08-02T20:50:31.704Z,101052.50
2022-08-02T20:53:03.940Z,101040.69
2022-08-02T20:55:31.657Z,101062.19
2022-08-02T20:58:00.299Z,101060.72
2022-08-02T21:00:28.311Z,101114.63
2022-08-02T21:02:55.466Z,101075.72
2022-08-02T21:05:26.696Z,101064.34
2022-08-02T21:08:11.547Z,101060.44
2022-08-02T21:10:41.734Z,101073.28
2022-08-02T21:13:22.376Z,101071.06
2022-08-02T21:15:50.869Z,101089.03
2022-08-02T21:18:27.702Z,101116.56
2022-08-02T21:21:03.925Z,101122.81
2022-08-02T21:23:30.352Z,101156.94
2022-08-02T21:26:03.002Z,101167.38
2022-08-02T21:28:43.572Z,101179.47
2022-08-02T21:31:18.357Z,101197.53
2022-08-02T21:33:58.221Z,101218.16
2022-08-02T21:38:58.109Z,101241.00
2022-08-02T21:41:24.575Z,101238.56
2022-08-02T21:44:06.985Z,101250.41
2022-08-02T21:46:33.452Z,101250.59
2022-08-02T21:49:01.333Z,101257.25
2022-08-02T21:51:34.255Z,101270.69
2022-08-02T21:54:17.720Z,101276.53
2022-08-02T21:56:52.017Z,101286.88
2022-08-02T21:59:25.281Z,101315.72
2022-08-02T22:01:53.131Z,101324.97
2022-08-02T22:04:20.726Z,101353.88
2022-08-02T22:06:49.114Z,101376.19
2022-08-02T22:09:44.108Z,101397.75
2022-08-02T22:12:09.742Z,101432.53
2022-08-02T22:14:37.198Z,101467.91
2022-08-02T22:17:08.458Z,101449.63
2022-08-02T22:19:35.910Z,101427.78
2022-08-02T22:22:02.327Z,101459.16
2022-08-02T22:24:30.073Z,101480.41
2022-08-02T22:26:57.032Z,101449.25
2022-08-02T22:29:23.581Z,101468.97
2022-08-02T22:31:50.100Z,101492.53
2022-08-02T22:34:36.989Z,101520.03
2022-08-02T22:37:05.716Z,101560.84
2022-08-02T22:39:32.426Z,101576.38
2022-08-02T22:42:05.381Z,101602.09
2022-08-02T22:47:19.669Z,101673.97
2022-08-02T22:49:54.408Z,101700.66
2022-08-02T22:52:22.789Z,101727.50
2022-08-02T22:54:50.822Z,101782.78
2022-08-02T22:57:17.755Z,101789.81
2022-08-02T22:58:55.695Z,101021.53
2022-08-02T22:59:09.787Z,101585.16
2022-08-02T22:59:56.697Z,101808.28
2022-08-02T23:02:23.100Z,101821.34
2022-08-02T23:04:51.793Z,101841.97
2022-08-02T23:07:18.496Z,101855.69
2022-08-02T23:09:44.912Z,101880.44
2022-08-02T23:12:11.399Z,101985.59
2022-08-02T23:14:37.831Z,101999.13
2022-08-02T23:17:04.281Z,102003.97
2022-08-02T23:19:30.690Z,101995.53
2022-08-02T23:22:02.313Z,102000.84
2022-08-02T23:24:29.568Z,102003.53
2022-08-02T23:26:56.038Z,102005.84
2022-08-02T23:29:22.454Z,102005.84
2022-08-02T23:31:48.890Z,101993.63
2022-08-02T23:34:16.009Z,101999.13
2022-08-02T23:36:42.448Z,102009.63
2022-08-02T23:39:08.992Z,102003.53
2022-08-02T23:41:35.425Z,102007.75
2022-08-02T23:44:13.921Z,102004.91
2022-08-02T23:46:45.728Z,102003.03
2022-08-02T23:49:13.511Z,101990.56
2022-08-02T23:51:40.006Z,101996.03
2022-08-02T23:54:06.449Z,101985.28
2022-08-02T23:56:33.076Z,101974.06
2022-08-02T23:58:59.527Z,101975.72
